createdAt,value
2019-04-03T00:01:34.410Z,72.25
2019-04-03T00:04:02.637Z,72.41
2019-04-03T00:06:31.306Z,72.34
2019-04-03T00:08:58.538Z,72.43
2019-04-03T00:11:25.788Z,72.84
2019-04-03T00:13:53.119Z,72.87
2019-04-03T00:16:20.436Z,72.56
2019-04-03T00:18:48.058Z,72.71
2019-04-03T00:21:15.409Z,72.93
2019-04-03T00:23:42.637Z,73.30
2019-04-03T00:26:09.984Z,72.86
2019-04-03T00:28:37.202Z,72.86
2019-04-03T00:31:04.487Z,73.04
2019-04-03T00:33:31.783Z,73.09
2019-04-03T00:35:59.033Z,73.06
2019-04-03T00:38:26.467Z,73.15
2019-04-03T00:40:54.355Z,73.20
2019-04-03T00:43:24.305Z,73.14
2019-04-03T00:45:54.057Z,73.64
2019-04-03T00:48:20.702Z,73.94
2019-04-03T00:50:47.970Z,74.05
2019-04-03T00:53:15.272Z,74.05
2019-04-03T00:55:42.638Z,73.95
2019-04-03T00:58:37.948Z,73.83
2019-04-03T01:01:09.683Z,73.96
2019-04-03T01:03:36.939Z,74.07
2019-04-03T01:06:04.630Z,73.96
2019-04-03T01:08:31.985Z,73.88
2019-04-03T01:11:00.407Z,73.55
2019-04-03T01:13:28.242Z,73.61
2019-04-03T01:15:55.563Z,73.43
2019-04-03T01:18:22.760Z,72.99
2019-04-03T01:20:49.998Z,72.28
2019-04-03T01:23:17.275Z,72.28
2019-04-03T01:25:44.489Z,72.11
2019-04-03T01:28:12.029Z,72.11
2019-04-03T01:30:39.360Z,71.91
2019-04-03T01:33:06.603Z,71.66
2019-04-03T01:35:33.889Z,71.77
2019-04-03T01:38:01.142Z,71.70
2019-04-03T01:40:28.505Z,71.36
2019-04-03T01:42:55.901Z,71.20
2019-04-03T01:45:25.245Z,71.20
2019-04-03T01:47:52.355Z,71.13
2019-04-03T01:50:19.631Z,71.08
2019-04-03T01:52:46.923Z,71.18
2019-04-03T01:55:14.297Z,71.21
2019-04-03T01:57:41.646Z,70.62
2019-04-03T02:00:09.664Z,70.62
2019-04-03T02:02:38.776Z,70.65
2019-04-03T02:05:06.996Z,70.42
2019-04-03T02:07:34.261Z,70.50
2019-04-03T02:10:01.527Z,70.64
2019-04-03T02:12:28.729Z,70.80
2019-04-03T02:14:55.939Z,70.66
2019-04-03T02:17:24.054Z,70.77
2019-04-03T02:19:51.602Z,70.52
2019-04-03T02:22:19.060Z,70.50
2019-04-03T02:24:46.337Z,70.91
2019-04-03T02:27:13.607Z,70.26
2019-04-03T02:29:40.918Z,70.26
2019-04-03T02:32:08.392Z,70.20
2019-04-03T02:34:36.619Z,69.95
2019-04-03T02:37:04.516Z,69.95
2019-04-03T02:39:31.834Z,69.96
2019-04-03T02:41:59.435Z,69.79
2019-04-03T02:44:26.897Z,69.69
2019-04-03T02:46:54.321Z,69.73
2019-04-03T02:49:21.598Z,69.47
2019-04-03T02:51:51.544Z,69.83
2019-04-03T02:54:29.803Z,69.88
2019-04-03T02:56:57.628Z,69.87
2019-04-03T02:59:25.948Z,70.02
2019-04-03T03:01:54.133Z,70.16
2019-04-03T03:04:22.398Z,69.95
2019-04-03T03:06:50.127Z,70.06
2019-04-03T03:09:18.498Z,70.09
2019-04-03T03:11:46.147Z,70.26
2019-04-03T03:14:13.973Z,70.26
2019-04-03T03:16:41.606Z,70.15
2019-04-03T03:19:10.635Z,70.00
2019-04-03T03:21:38.704Z,69.97
2019-04-03T03:24:06.458Z,69.78
2019-04-03T03:26:37.533Z,69.67
2019-04-03T03:29:16.241Z,69.35
2019-04-03T03:31:59.682Z,68.93
2019-04-03T03:34:05.274Z,68.93
2019-04-03T03:36:32.917Z,68.79
2019-04-03T03:39:00.984Z,68.77
2019-04-03T03:41:29.429Z,68.88
2019-04-03T03:43:57.437Z,68.87
2019-04-03T03:46:27.784Z,68.87
2019-04-03T03:48:55.383Z,68.75
2019-04-03T03:51:22.950Z,68.57
2019-04-03T03:53:50.892Z,68.49
2019-04-03T03:56:19.713Z,68.57
2019-04-03T03:58:48.807Z,68.57
2019-04-03T04:01:16.424Z,68.53
2019-04-03T04:03:43.980Z,68.47
2019-04-03T04:06:11.473Z,68.40
2019-04-03T04:08:42.662Z,68.37
2019-04-03T04:11:08.105Z,68.27
2019-04-03T04:13:35.876Z,68.03
2019-04-03T04:16:04.958Z,67.87
2019-04-03T04:18:32.726Z,67.87
2019-04-03T04:21:01.103Z,67.83
2019-04-03T04:23:29.306Z,67.43
2019-04-03T04:25:56.863Z,67.79
2019-04-03T04:28:24.211Z,67.79
2019-04-03T04:30:52.141Z,68.02
2019-04-03T04:33:19.402Z,68.20
2019-04-03T04:35:46.660Z,68.20
2019-04-03T04:38:14.080Z,68.76
2019-04-03T04:40:41.512Z,68.83
2019-04-03T04:43:08.935Z,68.66
2019-04-03T04:45:36.186Z,68.53
2019-04-03T04:48:03.775Z,68.62
2019-04-03T04:50:31.000Z,68.69
2019-04-03T04:52:58.723Z,69.06
2019-04-03T04:55:26.721Z,69.09
2019-04-03T04:57:53.946Z,69.11
2019-04-03T05:00:21.225Z,69.11
2019-04-03T05:02:48.865Z,69.66
2019-04-03T05:05:17.703Z,69.66
2019-04-03T05:07:44.970Z,69.68
2019-04-03T05:10:12.411Z,69.52
2019-04-03T05:12:42.548Z,69.52
2019-04-03T05:15:09.035Z,68.94
2019-04-03T05:17:36.295Z,68.77
2019-04-03T05:20:04.717Z,68.77
2019-04-03T05:22:32.031Z,68.39
2019-04-03T05:25:00.018Z,68.21
2019-04-03T05:27:27.474Z,67.92
2019-04-03T05:29:54.917Z,67.66
2019-04-03T05:32:22.252Z,67.66
2019-04-03T05:34:49.495Z,67.62
2019-04-03T05:37:19.872Z,67.62
2019-04-03T05:39:47.106Z,67.54
2019-04-03T05:42:14.583Z,67.55
2019-04-03T05:44:41.962Z,67.51
2019-04-03T05:47:09.403Z,67.65
2019-04-03T05:49:36.702Z,67.76
2019-04-03T05:52:04.687Z,67.82
2019-04-03T05:54:32.358Z,67.92
2019-04-03T05:56:59.581Z,68.03
2019-04-03T05:59:26.958Z,68.03
2019-04-03T06:01:54.225Z,68.16
2019-04-03T06:04:25.939Z,68.09
2019-04-03T06:06:53.180Z,68.06
2019-04-03T06:09:23.161Z,68.11
2019-04-03T06:11:51.918Z,68.17
2019-04-03T06:14:22.664Z,68.21
2019-04-03T06:16:48.824Z,68.26
2019-04-03T06:19:16.089Z,68.34
2019-04-03T06:21:45.615Z,68.55
2019-04-03T06:24:12.764Z,68.54
2019-04-03T06:26:39.976Z,68.63
2019-04-03T06:29:08.148Z,68.75
2019-04-03T06:31:35.464Z,68.75
2019-04-03T06:34:02.751Z,69.03
2019-04-03T06:36:30.025Z,69.24
2019-04-03T06:38:57.723Z,69.47
2019-04-03T06:41:25.418Z,69.50
2019-04-03T06:43:54.528Z,69.79
2019-04-03T06:46:21.862Z,69.79
2019-04-03T06:48:49.364Z,69.78
2019-04-03T06:51:16.928Z,69.78
2019-04-03T06:53:44.231Z,69.91
2019-04-03T06:56:11.524Z,70.09
2019-04-03T06:58:40.176Z,69.85
2019-04-03T07:01:07.679Z,69.72
2019-04-03T07:03:35.113Z,69.79
2019-04-03T07:06:02.453Z,69.53
2019-04-03T07:08:34.859Z,69.67
2019-04-03T07:10:58.889Z,69.44
2019-04-03T07:13:29.123Z,69.49
2019-04-03T07:15:56.852Z,69.33
2019-04-03T07:18:24.483Z,69.17
2019-04-03T07:20:54.015Z,69.09
2019-04-03T07:23:21.643Z,68.84
2019-04-03T07:25:49.051Z,68.84
2019-04-03T07:28:16.539Z,68.93
2019-04-03T07:30:43.821Z,68.89
2019-04-03T07:33:11.179Z,68.71
2019-04-03T07:35:40.448Z,68.71
2019-04-03T07:38:07.664Z,68.40
2019-04-03T07:40:34.942Z,67.85
2019-04-03T07:43:02.258Z,67.97
2019-04-03T07:45:29.549Z,67.72
2019-04-03T07:47:56.847Z,67.36
2019-04-03T07:50:24.431Z,66.84
2019-04-03T07:52:51.867Z,66.42
2019-04-03T07:55:19.239Z,67.03
2019-04-03T07:57:46.618Z,66.21
2019-04-03T08:00:14.576Z,65.28
2019-04-03T08:02:47.203Z,65.05
2019-04-03T08:05:11.422Z,64.37
2019-04-03T08:07:38.739Z,64.26
2019-04-03T08:10:06.185Z,64.32
2019-04-03T08:12:35.434Z,64.30
2019-04-03T08:15:04.098Z,63.88
2019-04-03T08:17:31.375Z,63.75
2019-04-03T08:19:58.756Z,63.74
2019-04-03T08:22:26.013Z,63.48
2019-04-03T08:24:53.826Z,63.23
2019-04-03T08:27:23.742Z,62.81
2019-04-03T08:29:50.930Z,62.84
2019-04-03T08:32:18.431Z,62.44
2019-04-03T08:34:45.697Z,62.42
2019-04-03T08:37:13.244Z,62.01
2019-04-03T08:39:40.523Z,61.72
2019-04-03T08:42:07.856Z,61.63
2019-04-03T08:44:36.074Z,61.25
2019-04-03T08:47:03.547Z,61.17
2019-04-03T08:49:30.928Z,61.39
2019-04-03T08:51:58.268Z,61.26
2019-04-03T08:54:25.596Z,60.72
2019-04-03T08:56:52.837Z,60.65
2019-04-03T08:59:20.341Z,60.24
2019-04-03T09:01:47.742Z,60.13
2019-04-03T09:04:16.791Z,59.66
2019-04-03T09:06:46.632Z,59.28
2019-04-03T09:09:13.915Z,58.40
2019-04-03T09:11:41.284Z,58.40
2019-04-03T09:14:08.600Z,58.32
2019-04-03T09:16:35.853Z,57.98
2019-04-03T09:19:03.192Z,57.97
2019-04-03T09:21:30.476Z,58.11
2019-04-03T09:23:58.343Z,58.20
2019-04-03T09:26:25.861Z,58.34
2019-04-03T09:28:53.133Z,58.61
2019-04-03T09:31:20.816Z,58.04
2019-04-03T09:33:48.353Z,57.38
2019-04-03T09:36:15.784Z,56.84
2019-04-03T09:38:43.210Z,56.25
2019-04-03T09:41:10.534Z,56.36
2019-04-03T09:43:39.647Z,56.47
2019-04-03T09:46:06.966Z,53.61
2019-04-03T09:48:34.879Z,54.50
2019-04-03T09:51:03.603Z,53.96
2019-04-03T09:53:30.830Z,52.99
2019-04-03T09:56:00.232Z,53.17
2019-04-03T09:58:27.502Z,53.46
2019-04-03T10:00:54.806Z,52.36
2019-04-03T10:03:23.828Z,52.71
2019-04-03T10:05:51.246Z,52.71
2019-04-03T10:08:18.596Z,52.44
2019-04-03T10:10:47.094Z,51.89
2019-04-03T10:13:14.990Z,51.06
2019-04-03T10:15:42.570Z,51.17
2019-04-03T10:18:10.151Z,51.69
2019-04-03T10:20:37.731Z,50.46
2019-04-03T10:23:04.910Z,50.29
2019-04-03T10:25:32.286Z,51.70
2019-04-03T10:27:59.488Z,50.95
2019-04-03T10:30:27.483Z,50.26
2019-04-03T10:32:54.797Z,50.19
2019-04-03T10:35:22.059Z,49.17
2019-04-03T10:37:49.325Z,49.18
2019-04-03T10:40:16.969Z,49.25
2019-04-03T10:42:44.285Z,49.06
2019-04-03T10:45:11.693Z,48.15
2019-04-03T10:47:42.809Z,47.92
2019-04-03T10:50:08.794Z,47.80
2019-04-03T10:52:36.132Z,49.42
2019-04-03T10:55:04.002Z,49.18
2019-04-03T10:57:31.754Z,48.88
2019-04-03T11:00:00.434Z,48.33
2019-04-03T11:02:27.687Z,47.92
2019-04-03T11:04:54.927Z,47.60
2019-04-03T11:07:22.390Z,48.62
2019-04-03T11:09:49.658Z,48.54
2019-04-03T11:12:17.041Z,46.96
2019-04-03T11:14:44.922Z,47.74
2019-04-03T11:17:12.135Z,47.94
2019-04-03T11:19:39.747Z,47.90
2019-04-03T11:22:07.300Z,48.06
2019-04-03T11:24:37.725Z,47.89
2019-04-03T11:27:03.846Z,47.30
2019-04-03T11:29:31.103Z,47.48
2019-04-03T11:31:58.709Z,47.29
2019-04-03T11:34:25.966Z,46.93
2019-04-03T11:36:53.190Z,47.27
2019-04-03T11:39:20.563Z,46.02
2019-04-03T11:41:48.344Z,47.34
2019-04-03T11:44:15.562Z,48.12
2019-04-03T11:46:42.815Z,47.80
2019-04-03T11:49:10.283Z,46.88
2019-04-03T11:51:37.522Z,47.71
2019-04-03T11:54:06.759Z,48.13
2019-04-03T11:56:33.949Z,48.09
2019-04-03T11:59:01.178Z,47.89
2019-04-03T12:01:28.806Z,48.99
2019-04-03T12:03:56.216Z,48.15
2019-04-03T12:06:23.527Z,47.70
2019-04-03T12:08:51.679Z,48.11
2019-04-03T12:11:18.940Z,47.18
2019-04-03T12:13:47.244Z,48.21
2019-04-03T12:16:14.503Z,47.93
2019-04-03T12:18:41.796Z,48.37
2019-04-03T12:21:11.690Z,45.72
2019-04-03T12:23:39.398Z,46.17
2019-04-03T12:26:07.060Z,48.73
2019-04-03T12:28:34.365Z,47.90
2019-04-03T12:31:01.607Z,47.21
2019-04-03T12:33:29.112Z,47.77
2019-04-03T12:35:56.472Z,47.64
2019-04-03T12:38:23.889Z,46.48
2019-04-03T12:40:51.261Z,46.29
2019-04-03T12:43:18.701Z,47.61
2019-04-03T12:45:46.044Z,47.00
2019-04-03T12:48:13.266Z,45.71
2019-04-03T12:50:41.561Z,46.55
2019-04-03T12:53:08.789Z,45.86
2019-04-03T12:55:42.035Z,47.77
2019-04-03T12:58:08.247Z,46.45
2019-04-03T13:00:35.937Z,46.20
2019-04-03T13:03:03.456Z,46.42
2019-04-03T13:05:30.757Z,48.57
2019-04-03T13:07:59.823Z,49.24
2019-04-03T13:10:39.219Z,49.14
2019-04-03T13:12:57.170Z,47.35
2019-04-03T13:15:24.805Z,46.86
2019-04-03T13:17:52.229Z,47.63
2019-04-03T13:20:19.426Z,47.31
2019-04-03T13:22:46.680Z,48.25
2019-04-03T13:25:14.247Z,48.95
2019-04-03T13:27:41.823Z,49.10
2019-04-03T13:30:13.835Z,49.15
2019-04-03T13:32:41.870Z,47.84
2019-04-03T13:35:09.574Z,49.22
2019-04-03T13:37:36.807Z,49.16
2019-04-03T13:40:06.458Z,49.82
2019-04-03T13:42:33.915Z,50.38
2019-04-03T13:45:01.618Z,50.44
2019-04-03T13:47:28.882Z,50.58
2019-04-03T13:49:56.256Z,52.92
2019-04-03T13:52:23.496Z,50.98
2019-04-03T13:54:51.124Z,50.79
2019-04-03T13:57:18.490Z,50.22
2019-04-03T13:59:46.076Z,51.38
2019-04-03T14:02:14.575Z,52.72
2019-04-03T14:04:42.383Z,51.58
2019-04-03T14:07:09.792Z,52.64
2019-04-03T14:09:37.149Z,53.24
2019-04-03T14:12:05.329Z,53.83
2019-04-03T14:14:33.845Z,54.06
2019-04-03T14:17:01.554Z,54.18
2019-04-03T14:19:41.852Z,55.70
2019-04-03T14:21:59.947Z,54.79
2019-04-03T14:24:39.264Z,54.37
2019-04-03T14:26:56.863Z,54.00
2019-04-03T14:29:24.164Z,55.57
2019-04-03T14:31:51.384Z,54.46
2019-04-03T14:34:18.731Z,55.27
2019-04-03T14:36:46.085Z,55.00
2019-04-03T14:39:13.848Z,54.65
2019-04-03T14:41:41.197Z,54.50
2019-04-03T14:44:09.758Z,53.84
2019-04-03T14:46:37.326Z,52.82
2019-04-03T14:49:04.787Z,52.19
2019-04-03T14:51:32.055Z,52.87
2019-04-03T14:53:59.287Z,53.76
2019-04-03T14:56:26.568Z,53.11
2019-04-03T14:58:53.811Z,52.97
2019-04-03T15:01:21.349Z,52.30
2019-04-03T15:03:48.969Z,52.45
2019-04-03T15:06:16.698Z,52.38
2019-04-03T15:08:43.963Z,52.47
2019-04-03T15:11:11.249Z,52.31
2019-04-03T15:13:40.469Z,52.24
2019-04-03T15:16:07.729Z,52.13
2019-04-03T15:18:35.259Z,51.77
2019-04-03T15:21:02.472Z,51.09
2019-04-03T15:23:39.968Z,51.57
2019-04-03T15:26:04.450Z,51.49
2019-04-03T15:28:32.378Z,51.41
2019-04-03T15:30:59.781Z,50.77
2019-04-03T15:33:27.427Z,51.60
2019-04-03T15:35:54.800Z,51.51
2019-04-03T15:38:22.110Z,51.61
2019-04-03T15:40:49.361Z,51.82
2019-04-03T15:43:17.347Z,51.70
2019-04-03T15:45:45.552Z,51.58
2019-04-03T15:48:12.816Z,51.74
2019-04-03T15:50:40.113Z,51.47
2019-04-03T15:53:07.390Z,52.14
2019-04-03T15:55:37.032Z,51.58
2019-04-03T15:58:03.809Z,51.64
2019-04-03T16:00:34.339Z,52.21
2019-04-03T16:03:00.628Z,52.95
2019-04-03T16:05:30.603Z,52.71
2019-04-03T16:07:57.476Z,52.55
2019-04-03T16:10:24.877Z,52.14
2019-04-03T16:12:52.186Z,52.39
2019-04-03T16:15:20.176Z,52.71
2019-04-03T16:17:48.630Z,53.26
2019-04-03T16:20:17.614Z,53.28
2019-04-03T16:22:45.232Z,53.90
2019-04-03T16:25:15.570Z,53.61
2019-04-03T16:27:42.070Z,53.74
2019-04-03T16:30:09.840Z,53.86
2019-04-03T16:32:37.616Z,53.84
2019-04-03T16:35:06.052Z,53.65
2019-04-03T16:37:33.624Z,53.70
2019-04-03T16:40:04.147Z,53.64
2019-04-03T16:42:30.183Z,53.57
2019-04-03T16:44:58.216Z,53.69
2019-04-03T16:47:27.620Z,53.50
2019-04-03T16:49:55.928Z,53.89
2019-04-03T16:52:23.290Z,54.06
2019-04-03T16:54:50.904Z,53.94
2019-04-03T16:57:21.469Z,53.82
2019-04-03T16:59:47.325Z,54.41
2019-04-03T17:02:14.556Z,54.65
2019-04-03T17:04:42.273Z,54.70
2019-04-03T17:07:09.804Z,54.50
2019-04-03T17:09:38.765Z,54.66
2019-04-03T17:12:06.661Z,54.70
2019-04-03T17:14:34.208Z,54.74
2019-04-03T17:17:01.848Z,54.73
2019-04-03T17:19:29.587Z,54.60
2019-04-03T17:21:57.181Z,54.58
2019-04-03T17:24:24.669Z,54.70
2019-04-03T17:26:57.341Z,54.75
2019-04-03T17:29:21.112Z,54.79
2019-04-03T17:31:48.451Z,54.85
2019-04-03T17:34:15.873Z,54.83
2019-04-03T17:36:43.260Z,54.96
2019-04-03T17:39:10.489Z,54.94
2019-04-03T17:41:38.018Z,54.82
2019-04-03T17:44:05.888Z,55.18
2019-04-03T17:46:33.179Z,55.36
2019-04-03T17:49:00.476Z,55.43
2019-04-03T17:51:27.695Z,55.56
2019-04-03T17:53:54.915Z,55.71
2019-04-03T17:56:22.191Z,55.82
2019-04-03T17:58:49.479Z,55.88
2019-04-03T18:01:16.756Z,55.87
2019-04-03T18:03:44.029Z,55.97
2019-04-03T18:06:11.269Z,56.30
2019-04-03T18:08:38.535Z,56.30
2019-04-03T18:11:05.828Z,56.31
2019-04-03T18:13:33.079Z,56.20
2019-04-03T18:16:00.343Z,56.19
2019-04-03T18:18:27.712Z,56.13
2019-04-03T18:20:54.971Z,56.18
2019-04-03T18:23:22.291Z,56.32
2019-04-03T18:25:49.656Z,56.36
2019-04-03T18:28:16.947Z,56.29
2019-04-03T18:30:44.390Z,56.32
2019-04-03T18:33:11.629Z,56.61
2019-04-03T18:35:38.860Z,56.91
2019-04-03T18:38:07.997Z,57.05
2019-04-03T18:40:35.238Z,57.29
2019-04-03T18:43:02.475Z,57.29
2019-04-03T18:45:29.802Z,57.50
2019-04-03T18:47:57.247Z,57.68
2019-04-03T18:50:24.598Z,57.83
2019-04-03T18:52:51.959Z,57.97
2019-04-03T18:55:19.304Z,58.08
2019-04-03T18:57:49.537Z,58.22
2019-04-03T19:00:15.972Z,58.24
2019-04-03T19:02:43.299Z,58.31
2019-04-03T19:05:13.790Z,58.36
2019-04-03T19:07:39.994Z,58.48
2019-04-03T19:10:08.042Z,58.55
2019-04-03T19:12:36.211Z,58.72
2019-04-03T19:15:04.159Z,59.07
2019-04-03T19:17:31.404Z,59.07
2019-04-03T19:20:09.651Z,59.33
2019-04-03T19:22:27.816Z,59.44
2019-04-03T19:24:58.470Z,59.38
2019-04-03T19:27:25.316Z,59.42
2019-04-03T19:29:52.582Z,59.57
2019-04-03T19:32:19.842Z,60.00
2019-04-03T19:34:47.256Z,60.45
2019-04-03T19:37:14.492Z,60.44
2019-04-03T19:39:41.737Z,60.33
2019-04-03T19:42:09.005Z,60.23
2019-04-03T19:44:36.313Z,60.21
2019-04-03T19:47:03.763Z,60.35
2019-04-03T19:49:31.097Z,60.44
2019-04-03T19:51:58.311Z,60.65
2019-04-03T19:54:25.597Z,61.13
2019-04-03T19:56:52.851Z,61.56
2019-04-03T19:59:20.098Z,61.71
2019-04-03T20:01:47.374Z,61.82
2019-04-03T20:04:15.961Z,61.68
2019-04-03T20:06:43.683Z,62.04
2019-04-03T20:09:10.990Z,62.25
2019-04-03T20:11:38.226Z,62.38
2019-04-03T20:14:05.469Z,62.38
2019-04-03T20:16:32.750Z,62.01
2019-04-03T20:18:59.987Z,62.01
2019-04-03T20:21:27.265Z,62.03
2019-04-03T20:23:54.542Z,62.17
2019-04-03T20:26:21.818Z,62.17
2019-04-03T20:28:49.099Z,61.98
2019-04-03T20:31:16.385Z,62.03
2019-04-03T20:33:43.631Z,62.08
2019-04-03T20:36:10.874Z,62.17
2019-04-03T20:38:38.138Z,62.21
2019-04-03T20:41:05.356Z,62.42
2019-04-03T20:43:32.667Z,62.38
2019-04-03T20:46:00.050Z,62.38
2019-04-03T20:48:28.291Z,62.40
2019-04-03T20:50:56.015Z,62.42
2019-04-03T20:53:23.240Z,62.54
2019-04-03T20:55:50.474Z,62.70
2019-04-03T20:58:17.723Z,62.69
2019-04-03T21:00:51.455Z,62.86
2019-04-03T21:03:16.460Z,63.46
2019-04-03T21:05:43.713Z,63.66
2019-04-03T21:08:10.955Z,63.71
2019-04-03T21:10:38.165Z,63.85
2019-04-03T21:13:06.896Z,64.91
2019-04-03T21:15:34.567Z,65.39
2019-04-03T21:18:01.819Z,66.84
2019-04-03T21:20:29.074Z,67.08
2019-04-03T21:22:56.335Z,66.19
2019-04-03T21:25:23.590Z,66.19
2019-04-03T21:27:50.844Z,65.98
2019-04-03T21:30:18.198Z,66.22
2019-04-03T21:32:45.429Z,67.22
2019-04-03T21:35:12.706Z,67.14
2019-04-03T21:37:40.647Z,67.14
2019-04-03T21:40:08.300Z,67.21
2019-04-03T21:42:35.621Z,66.99
2019-04-03T21:45:07.115Z,67.45
2019-04-03T21:47:32.149Z,67.49
2019-04-03T21:49:59.412Z,67.49
2019-04-03T21:52:26.630Z,67.40
2019-04-03T21:54:53.880Z,67.22
2019-04-03T21:57:21.178Z,68.54
2019-04-03T21:59:48.383Z,68.74
2019-04-03T22:02:16.185Z,68.39
2019-04-03T22:04:43.939Z,68.27
2019-04-03T22:07:11.184Z,68.26
2019-04-03T22:09:38.411Z,69.07
2019-04-03T22:12:06.554Z,69.07
2019-04-03T22:14:33.844Z,69.07
2019-04-03T22:17:01.092Z,68.89
2019-04-03T22:19:28.345Z,68.89
2019-04-03T22:21:55.554Z,69.25
2019-04-03T22:24:22.902Z,69.28
2019-04-03T22:26:50.174Z,69.37
2019-04-03T22:29:19.794Z,68.93
2019-04-03T22:31:46.612Z,68.98
2019-04-03T22:34:13.869Z,69.01
2019-04-03T22:36:41.146Z,68.28
2019-04-03T22:39:08.793Z,68.72
2019-04-03T22:41:36.144Z,68.87
2019-04-03T22:44:03.576Z,68.89
2019-04-03T22:46:30.883Z,69.12
2019-04-03T22:49:00.030Z,69.33
2019-04-03T22:51:27.273Z,68.94
2019-04-03T22:53:54.515Z,68.64
2019-04-03T22:56:21.791Z,68.47
2019-04-03T22:58:49.100Z,69.31
2019-04-03T23:01:16.343Z,69.45
2019-04-03T23:03:43.608Z,68.44
2019-04-03T23:06:10.840Z,68.92
2019-04-03T23:08:38.064Z,67.82
2019-04-03T23:11:05.335Z,67.89
2019-04-03T23:13:33.830Z,68.12
2019-04-03T23:16:01.734Z,68.87
2019-04-03T23:18:29.031Z,69.33
2019-04-03T23:20:56.332Z,69.41
2019-04-03T23:23:27.075Z,69.47
2019-04-03T23:25:52.730Z,69.33
2019-04-03T23:28:19.944Z,68.87
2019-04-03T23:30:47.171Z,69.32
2019-04-03T23:33:16.691Z,69.71
2019-04-03T23:35:43.588Z,69.75
2019-04-03T23:38:10.806Z,69.75
2019-04-03T23:40:38.076Z,70.55
2019-04-03T23:43:08.545Z,71.76
2019-04-03T23:45:34.582Z,72.27
2019-04-03T23:48:01.895Z,71.93
2019-04-03T23:50:29.143Z,71.08
2019-04-03T23:52:56.426Z,69.91
2019-04-03T23:55:23.678Z,69.91
2019-04-03T23:57:50.902Z,69.67
